Albany, Pennsylvania
Current Conditions -  °F | °C
As of 4:54 AM on Sunday 26 Oct 2014 (Local Time) from KRDG Reporting Station
Light Rain Light Rain  
Wind Chill: 59°   Ceiling: Unl
Heat Index: 59°   Visibility: 10mi
Dew Point: 36°   Wind: 12mph
Humidity: 42%   Direction: 290°WNW
Pressure: 29.63"   Gusts: NA
Location:  40.6329°N, 75.8768°W
Report Text: KRDG 260854Z AUTO 29010KT 10SM -RA CLR 15/02 A2963 RMK AO2 SLP037 P0000 60000 T01500022 53010
Loading
Personal Weather Stations






























Interactive Weather Map New forecast layout! Learn more

10-Day Weather Forecast

Advertisements
Track Severe Weather on mobile